This is the latest recevied weather packets stored in our database for station/object KQ4TV-2. If no packets are shown the sender has not sent any weather packets the latest 10 day(s).
| Time | Temp. | Humidity | Pressure | Rain* | Wind** | Luminosity | Snow |
|---|---|---|---|---|---|---|---|
| 1787515233 | 30.56° C | 50% | - | 0 mm | - | - | - |
| 1787514146 | 30° C | 52% | - | 0 mm | - | - | - |
| 1787513300 | 29.44° C | 52% | - | 0 mm | - | - | - |
| 1787512696 | 29.44° C | 53% | - | 0 mm | - | - | - |
| 1787511930 | 30° C | 52% | - | 0 mm | - | - | - |
| 1787511568 | 29.44° C | 56% | - | 0 mm | - | - | - |
| 1787511205 | 29.44° C | 54% | - | 0 mm | - | - | - |
| 1787510964 | 29.44° C | 54% | - | 0 mm | - | - | - |
| 1787506580 | 28.89° C | 60% | - | 0 mm | - | - | - |
| 1787505251 | 28.33° C | 59% | - | 0 mm | - | - | - |
| 1787505130 | 28.33° C | 57% | - | 0 mm | - | - | - |
| 1787503997 | 28.33° C | 61% | - | 0 mm | - | - | - |
| 1787502614 | 27.78° C | 66% | - | 0 mm | - | - | - |
| 1787501889 | 27.22° C | 67% | - | 0 mm | - | - | - |
| 1787501043 | 27.22° C | 67% | - | 0 mm | - | - | - |
| 1787499839 | 27.78° C | 63% | - | 0 mm | - | - | - |
| 1787498872 | 27.22° C | 68% | - | 0 mm | - | - | - |
| 1787494678 | 25° C | 75% | - | 0 mm | - | - | - |
| 1787494642 | 25° C | 75% | - | 0 mm | - | - | - |
| 1787491049 | 22.22° C | 89% | - | 0 mm | - | - | - |
| 1787491016 | 22.22° C | 89% | - | 0 mm | - | - | - |
| 1787486303 | 18.33° C | 96% | - | 0 mm | - | - | - |
| 1787481590 | 18.33° C | 95% | - | 0 mm | - | - | - |
| 1787479415 | 18.89° C | 95% | - | 0 mm | - | - | - |
| 1787434823 | 32.22° C | 55% | - | 0 mm | - | - | - |
* Rain since midnight (hover to see other rain measurements)
** Current wind speed in m/s (hover to see current wind gust speed)